Terminal Aerodrome Forecast
Issued by NWS Albuquerque, NM

Home | Current Version | Previous Version | Text Only | Print | Product List | Glossary On
Versions: 1 2 3 4 5 6 7 8 9 10 11 12 13 14 15 16 17
000
FTUS45 KABQ 180500
TAFABQ
TAF
KABQ 180524Z 1806/1906 35010KT P6SM OVC080
     FM181100 VRB04KT P6SM VCSH OVC050
     FM181700 30010KT P6SM BKN050
     FM182100 31018G28KT P6SM BKN080
     FM190200 32012KT P6SM SCT120=

USA.gov is the U.S. government's official web portal to all federal, state and local government web resources and services.